Time;durP1;ratioP1;P1;durP2;ratioP2;P2;SDS_P1;SDS_P2;PMS_P1;PMS_P2;Temp;Humidity;BMP_temperature;BMP_pressure;BME280_temperature;BME280_humidity;BME280_pressure;Samples;Min_cycle;Max_cycle;Signal;HPM_P1;HPM_P2
2021/12/21 00:01:08;;;;;;;3.80;1.90;;;-10.80;38.00;;;-11.67;82.23;98980.47;4981912;28;118957;-78
2021/12/21 00:03:36;;;;;;;4.47;1.58;;;-10.80;36.00;;;-11.78;81.10;98979.94;4962329;28;114820;-78
2021/12/21 00:06:05;;;;;;;4.82;2.03;;;-10.80;30.70;;;-11.73;80.63;99000.34;4977319;28;128972;-78
2021/12/21 00:08:34;;;;;;;5.47;1.65;;;-10.70;26.10;;;-11.70;79.88;98997.38;4963845;28;128663;-79
2021/12/21 00:11:03;;;;;;;2.97;1.50;;;-10.80;24.30;;;-11.96;80.50;99001.22;4999374;28;117726;-79
2021/12/21 00:13:45;;;;;;;2.45;1.42;;;-10.80;24.20;;;-12.04;80.81;98990.84;4994075;28;115955;-79
2021/12/21 00:16:28;;;;;;;3.08;1.50;;;-10.80;23.10;;;-12.00;80.82;99005.19;5008369;28;129985;-76
2021/12/21 00:19:09;;;;;;;4.28;2.42;;;-10.80;20.60;;;-12.02;80.82;99012.41;4988305;28;129503;-76
2021/12/21 00:21:41;;;;;;;5.55;1.85;;;-10.90;19.80;;;-12.17;81.65;99007.16;5014737;28;118826;-77
2021/12/21 00:24:21;;;;;;;3.83;2.20;;;-10.90;20.80;;;-12.32;81.63;98996.63;5022829;28;115080;-77
2021/12/21 00:26:50;;;;;;;2.35;1.60;;;-11.10;20.60;;;-12.36;81.87;99003.19;5002207;28;129495;-78
2021/12/21 00:29:25;;;;;;;7.55;2.65;;;-11.10;20.60;;;-12.39;81.93;99000.94;5023945;27;129686;-78
2021/12/21 00:31:53;;;;;;;5.22;2.40;;;-11.20;19.40;;;-12.47;81.50;99001.00;5005425;28;118761;-78
2021/12/21 00:34:22;;;;;;;4.72;1.80;;;-11.20;18.70;;;-12.52;81.56;99003.34;4977591;28;113890;-77
2021/12/21 00:36:56;;;;;;;7.88;1.95;;;-11.20;19.90;;;-12.61;81.81;99009.59;4995555;28;129050;-77
2021/12/21 00:39:24;;;;;;;5.50;2.35;;;-11.40;20.50;;;-12.70;82.00;99017.50;5021812;28;129951;-77
2021/12/21 00:41:53;;;;;;;4.45;1.75;;;-11.50;21.60;;;-12.62;82.97;99008.78;4983743;28;118002;-77
2021/12/21 00:44:36;;;;;;;5.18;2.50;;;-11.50;21.30;;;-12.73;83.79;99012.63;5005917;28;113980;-79
2021/12/21 00:47:05;;;;;;;5.70;2.28;;;-11.50;21.10;;;-12.74;84.26;99008.38;5016236;28;130408;-79
2021/12/21 00:49:35;;;;;;;6.18;2.88;;;-11.60;22.20;;;-12.76;84.52;99007.75;5019505;28;129935;-79
2021/12/21 00:52:06;;;;;;;5.53;2.53;;;-11.60;23.20;;;-12.83;85.14;99004.19;5012767;28;118993;-79
2021/12/21 00:54:34;;;;;;;5.20;2.30;;;-11.60;23.60;;;-12.86;85.14;99007.13;4997484;28;113689;-79
2021/12/21 00:57:04;;;;;;;3.95;2.08;;;-11.70;24.50;;;-12.89;85.00;99007.47;5022968;28;129823;-78
2021/12/21 00:59:36;;;;;;;4.78;1.90;;;-11.70;24.40;;;-12.92;85.28;99013.06;5019614;28;129634;-78
2021/12/21 01:02:05;;;;;;;5.38;1.95;;;-11.60;23.80;;;-12.87;85.61;99005.50;5010660;28;119326;-77
2021/12/21 01:04:38;;;;;;;4.55;2.03;;;-11.70;24.30;;;-12.97;85.54;99000.50;5006464;28;115047;-78
2021/12/21 01:07:16;;;;;;;4.45;2.42;;;-11.60;24.90;;;-12.93;85.87;99000.97;5020298;28;130002;-78
2021/12/21 01:10:21;;;;;;;4.55;2.28;;;-11.70;27.10;;;-12.88;86.44;99004.69;5009812;28;130141;-77
2021/12/21 01:12:57;;;;;;;5.22;2.30;;;-11.70;26.00;;;-12.88;87.39;99003.91;5003877;28;118648;-77
2021/12/21 01:15:44;;;;;;;4.63;2.40;;;-11.70;29.30;;;-12.94;87.63;98999.34;4988838;28;114865;-76
2021/12/21 01:18:17;;;;;;;5.47;1.92;;;-11.70;28.70;;;-12.91;87.46;98996.41;5004659;28;130202;-77
2021/12/21 01:20:50;;;;;;;3.58;1.88;;;-11.80;29.20;;;-12.97;87.60;98999.69;5021256;28;129797;-77
2021/12/21 01:23:42;;;;;;;2.83;1.67;;;-11.80;29.60;;;-13.06;87.76;99002.34;4999776;28;118671;-77
2021/12/21 01:26:18;;;;;;;3.67;2.00;;;-11.90;28.40;;;-13.04;87.46;99003.00;5003819;28;114139;-76
2021/12/21 01:28:53;;;;;;;3.03;1.98;;;-11.90;28.30;;;-13.09;87.44;99002.69;5017790;28;130424;-76
2021/12/21 01:31:30;;;;;;;4.32;2.15;;;-11.90;27.20;;;-13.04;86.86;99005.59;5004255;28;129538;-77
2021/12/21 01:34:14;;;;;;;3.78;1.98;;;-11.80;25.30;;;-13.16;86.36;99009.59;5026235;28;118939;-76
2021/12/21 01:36:49;;;;;;;4.90;2.47;;;-11.90;25.80;;;-13.26;86.97;99006.34;5018556;28;115548;-76
2021/12/21 01:39:46;;;;;;;2.85;1.77;;;-12.00;24.20;;;-13.35;87.09;99012.63;5011377;28;130162;-76
2021/12/21 01:42:17;;;;;;;4.68;2.10;;;-12.00;25.10;;;-13.31;87.41;99016.50;5017586;28;129890;-76
2021/12/21 01:50:16;;;;;;;4.25;2.33;;;-12.10;25.20;;;-13.41;87.62;99014.94;4992050;28;129423;-76
2021/12/21 01:52:45;;;;;;;3.60;2.00;;;-12.10;26.30;;;-13.41;87.72;99020.16;5025849;28;130244;-76
2021/12/21 01:55:15;;;;;;;3.80;2.17;;;-12.10;25.80;;;-13.43;88.20;99018.69;5018307;28;118938;-76
2021/12/21 01:57:44;;;;;;;3.60;1.83;;;-12.20;26.40;;;-13.42;87.93;99023.72;4984169;28;114942;-76
2021/12/21 02:00:15;;;;;;;3.60;1.88;;;-12.20;26.40;;;-13.43;88.25;99022.13;5015170;28;129988;-76
2021/12/21 02:02:45;;;;;;;3.13;1.85;;;-12.20;26.80;;;-13.38;88.15;99030.25;5037112;27;129011;-76
2021/12/21 02:05:14;;;;;;;6.57;2.65;;;-12.20;28.10;;;-13.28;87.79;99024.00;5010753;28;118844;-76
2021/12/21 02:07:43;;;;;;;4.22;2.00;;;-12.20;26.40;;;-13.34;88.18;99035.94;4997312;28;114961;-76
2021/12/21 02:10:12;;;;;;;4.25;2.05;;;-12.20;26.90;;;-13.30;87.87;99034.63;5040792;27;129757;-76
2021/12/21 02:12:42;;;;;;;3.97;1.95;;;-12.30;28.40;;;-13.39;88.25;99033.84;5026276;27;129617;-76
2021/12/21 02:15:10;;;;;;;4.15;2.17;;;-12.20;28.70;;;-13.32;88.05;99035.75;5018014;28;118759;-76
2021/12/21 02:20:39;;;;;;;2.97;2.08;;;-12.20;29.70;;;-13.45;88.67;99039.75;4987620;28;129945;-76
2021/12/21 02:23:12;;;;;;;6.63;2.92;;;-12.20;29.80;;;-13.40;88.65;99042.69;5009309;28;129625;-77
2021/12/21 02:26:09;;;;;;;6.53;2.75;;;-12.30;29.80;;;-13.34;88.90;99056.03;4976607;28;119447;-77
2021/12/21 02:31:27;;;;;;;11.93;4.03;;;-12.30;30.90;;;-13.38;89.43;99051.16;5020091;28;129806;-77
2021/12/21 02:33:57;;;;;;;8.82;3.17;;;-12.30;32.00;;;-13.43;89.61;99060.44;4990770;28;129213;-77
2021/12/21 02:36:27;;;;;;;7.28;3.80;;;-12.30;32.60;;;-13.32;89.61;99064.47;4988828;28;118619;-77
2021/12/21 02:38:56;;;;;;;8.25;2.75;;;-12.30;32.20;;;-13.47;90.08;99067.81;4986680;28;115144;-77
2021/12/21 02:41:25;;;;;;;9.70;3.63;;;-12.30;34.30;;;-13.46;90.16;99064.22;4972084;28;129281;-77
2021/12/21 02:43:56;;;;;;;6.43;2.58;;;-12.30;34.10;;;-13.49;90.35;99069.78;4969221;28;129345;-77
2021/12/21 02:46:26;;;;;;;6.20;2.83;;;-12.20;34.00;;;-13.36;90.09;99063.22;4997204;28;118863;-77
2021/12/21 02:48:55;;;;;;;4.90;2.70;;;-12.20;33.60;;;-13.38;90.07;99064.19;4990627;28;115306;-78
2021/12/21 02:51:26;;;;;;;8.32;4.50;;;-12.30;33.80;;;-13.38;90.18;99072.03;4989272;28;128760;-77
2021/12/21 02:53:55;;;;;;;11.38;4.05;;;-12.30;34.10;;;-13.33;90.26;99057.69;4999993;28;129378;-76
2021/12/21 02:56:24;;;;;;;6.18;3.28;;;-12.20;34.10;;;-13.33;90.62;99075.94;4979834;28;119075;-76
2021/12/21 02:58:52;;;;;;;5.68;2.83;;;-12.20;33.70;;;-13.33;90.04;99074.16;4994243;28;115325;-77
2021/12/21 03:01:21;;;;;;;11.80;4.68;;;-12.00;33.80;;;-13.28;90.25;99066.59;5001015;28;130280;-77
2021/12/21 03:03:49;;;;;;;10.82;3.65;;;-12.10;32.90;;;-13.32;90.45;99077.53;4998726;28;129614;-77
2021/12/21 03:06:45;;;;;;;5.70;2.53;;;-12.10;32.40;;;-13.32;90.18;99069.69;4996116;28;119006;-76
2021/12/21 03:09:34;;;;;;;5.60;3.08;;;-12.10;32.20;;;-13.27;90.01;99077.88;4989898;28;115095;-76
2021/12/21 03:12:13;;;;;;;5.90;3.03;;;-12.10;31.80;;;-13.33;90.30;99083.78;5001992;28;131905;-76
2021/12/21 03:14:43;;;;;;;6.05;2.95;;;-12.20;32.10;;;-13.39;90.40;99086.06;4971981;28;129578;-76
2021/12/21 03:17:13;;;;;;;6.70;3.30;;;-12.20;32.70;;;-13.27;90.38;99077.88;4987157;28;118888;-76
2021/12/21 03:19:42;;;;;;;5.47;2.65;;;-12.20;33.70;;;-13.27;90.33;99072.63;5004229;28;115208;-75
2021/12/21 03:22:12;;;;;;;7.07;3.42;;;-12.30;35.40;;;-13.21;90.14;99069.34;5017119;28;129988;-75
2021/12/21 03:24:43;;;;;;;7.13;2.63;;;-12.30;34.40;;;-13.23;90.34;99077.38;5024744;28;129517;-75
2021/12/21 03:27:13;;;;;;;5.05;2.60;;;-12.30;35.40;;;-13.31;90.34;99072.13;5019318;28;118836;-75
2021/12/21 03:29:42;;;;;;;9.40;2.88;;;-12.30;36.40;;;-13.27;90.36;99078.66;5025100;28;114612;-75
2021/12/21 03:32:11;;;;;;;4.43;2.67;;;-12.40;36.70;;;-13.32;90.27;99074.91;4991842;28;128527;-75
2021/12/21 03:34:39;;;;;;;5.18;2.80;;;-12.50;37.70;;;-13.31;90.58;99079.16;5001020;28;130008;-75
2021/12/21 03:37:12;;;;;;;5.25;2.70;;;-12.40;39.30;;;-13.24;90.45;99082.75;5006462;28;118734;-75
2021/12/21 03:39:44;;;;;;;4.00;2.47;;;-12.50;39.40;;;-13.14;90.35;99083.34;5026091;28;115852;-75
2021/12/21 03:42:15;;;;;;;7.20;2.80;;;-12.60;39.60;;;-13.13;89.98;99084.16;4989327;28;129459;-75
2021/12/21 03:44:44;;;;;;;6.00;2.60;;;-12.70;40.70;;;-13.19;89.80;99080.44;5014897;28;129737;-75
2021/12/21 03:47:14;;;;;;;6.38;2.90;;;-12.70;42.90;;;-13.32;91.87;99086.19;5016561;27;118787;-75
2021/12/21 03:49:54;;;;;;;7.13;3.22;;;-12.70;45.60;;;-13.30;91.73;99093.88;5032089;27;113851;-75
2021/12/21 03:52:25;;;;;;;9.40;3.42;;;-12.60;46.70;;;-13.27;91.60;99094.34;5038718;27;129906;-75
2021/12/21 03:54:59;;;;;;;6.32;3.30;;;-12.60;46.90;;;-13.26;92.16;99084.69;5042749;27;129954;-75
2021/12/21 03:57:29;;;;;;;6.28;2.90;;;-12.60;47.50;;;-13.29;91.55;99095.47;5023158;28;118732;-76
2021/12/21 03:59:59;;;;;;;6.15;3.38;;;-12.70;48.40;;;-13.31;92.24;99094.84;5016865;28;115136;-75
2021/12/21 04:02:29;;;;;;;7.30;3.05;;;-12.70;48.60;;;-13.24;92.56;99087.97;5007035;28;128600;-76
2021/12/21 04:04:59;;;;;;;6.68;2.90;;;-12.70;49.70;;;-13.26;92.11;99090.75;5012794;28;129653;-75
2021/12/21 04:07:29;;;;;;;5.18;3.03;;;-12.60;51.60;;;-13.09;91.98;99095.91;5021722;28;118847;-75
2021/12/21 04:10:00;;;;;;;8.38;3.13;;;-12.40;51.20;;;-13.00;91.97;99094.09;4998851;27;115514;-75
2021/12/21 04:12:29;;;;;;;9.20;3.20;;;-12.40;51.50;;;-12.94;91.38;99098.66;5016945;28;129015;-75
2021/12/21 04:14:58;;;;;;;7.25;2.80;;;-12.30;51.30;;;-12.98;91.43;99092.13;5020991;28;129658;-75
2021/12/21 04:17:26;;;;;;;7.20;3.10;;;-12.30;51.00;;;-12.95;91.40;99091.78;5005392;28;118744;-75
2021/12/21 04:19:55;;;;;;;6.50;3.00;;;-12.30;49.90;;;-12.95;91.56;99094.38;5023856;28;115096;-75
2021/12/21 04:22:24;;;;;;;4.95;3.05;;;-12.20;49.10;;;-12.98;91.54;99092.13;5008241;28;129735;-75
2021/12/21 04:24:53;;;;;;;5.18;2.53;;;-12.20;48.40;;;-13.00;91.67;99084.44;5026182;28;129697;-79
2021/12/21 04:27:23;;;;;;;4.32;2.60;;;-12.20;47.10;;;-13.00;91.93;99094.91;5025031;28;118951;-75
2021/12/21 04:29:51;;;;;;;7.35;3.25;;;-12.20;46.40;;;-12.97;91.70;99093.75;5025243;28;115875;-76
2021/12/21 04:32:20;;;;;;;5.93;3.22;;;-12.00;45.80;;;-12.97;91.42;99096.38;5024686;28;130189;-77
2021/12/21 04:34:49;;;;;;;7.43;3.03;;;-12.20;46.20;;;-12.95;91.87;99091.78;5024892;28;130275;-77
2021/12/21 04:37:18;;;;;;;5.93;2.75;;;-12.20;46.50;;;-12.89;92.00;99096.34;5023698;28;119353;-81
2021/12/21 04:39:53;;;;;;;9.50;3.85;;;-12.20;46.80;;;-12.82;91.51;99101.69;5000819;28;115243;-76
2021/12/21 04:42:24;;;;;;;6.55;3.13;;;-12.20;47.50;;;-12.77;91.86;99102.81;4992843;28;129991;-75
2021/12/21 04:44:53;;;;;;;8.32;4.10;;;-12.20;48.50;;;-12.73;91.57;99096.28;5009866;28;129083;-76
2021/12/21 04:47:22;;;;;;;6.88;3.55;;;-12.10;49.20;;;-12.66;91.27;99102.41;5024889;28;118869;-76
2021/12/21 04:49:52;;;;;;;5.80;3.13;;;-12.20;49.40;;;-12.56;90.83;99101.41;5010076;28;114467;-76
2021/12/21 04:52:21;;;;;;;6.18;3.28;;;-12.10;50.20;;;-12.58;90.85;99106.00;5024652;28;130564;-76
2021/12/21 04:54:49;;;;;;;7.57;3.35;;;-12.10;50.70;;;-12.60;91.12;99102.72;5013251;28;130050;-76
2021/12/21 04:57:20;;;;;;;8.63;3.40;;;-12.00;51.10;;;-12.64;91.14;99099.63;5013817;28;117782;-76
2021/12/21 04:59:51;;;;;;;10.10;3.38;;;-12.00;50.10;;;-12.62;91.66;99096.84;5028400;28;115414;-76
2021/12/21 05:02:19;;;;;;;6.78;3.28;;;-12.00;49.80;;;-12.69;91.96;99102.75;5028134;28;130090;-76
2021/12/21 05:04:48;;;;;;;6.40;3.03;;;-11.90;49.30;;;-12.69;92.18;99097.53;5012875;28;129270;-76
2021/12/21 05:07:22;;;;;;;10.00;4.35;;;-11.90;49.30;;;-12.60;92.06;99100.09;5028134;28;119057;-76
2021/12/21 05:09:56;;;;;;;11.48;4.30;;;-11.90;49.50;;;-12.63;92.21;99092.59;5028501;28;115648;-76
2021/12/21 05:12:26;;;;;;;9.88;4.95;;;-11.90;49.60;;;-12.63;92.28;99084.75;5009868;28;129856;-76
2021/12/21 05:14:57;;;;;;;8.40;3.47;;;-11.90;49.40;;;-12.60;92.45;99085.25;5012590;28;129054;-76
2021/12/21 05:17:27;;;;;;;9.10;2.88;;;-11.80;49.70;;;-12.63;92.43;99082.16;5010130;28;118725;-76
2021/12/21 05:19:55;;;;;;;9.23;3.95;;;-11.80;49.90;;;-12.64;92.87;99083.16;5010860;28;115686;-76
2021/12/21 05:22:24;;;;;;;7.22;3.28;;;-11.70;49.60;;;-12.61;92.73;99090.66;5012863;28;130040;-77
2021/12/21 05:24:53;;;;;;;6.85;3.83;;;-11.80;49.90;;;-12.58;92.65;99088.50;5027400;28;130231;-76
2021/12/21 05:27:23;;;;;;;9.23;4.65;;;-11.90;51.00;;;-12.57;92.93;99094.53;5027522;28;119248;-76
2021/12/21 05:29:51;;;;;;;6.28;3.05;;;-11.90;51.00;;;-12.53;93.05;99090.59;5013648;28;114604;-76
2021/12/21 05:32:21;;;;;;;11.75;4.10;;;-11.90;51.40;;;-12.51;92.82;99105.13;5029585;28;129987;-76
2021/12/21 05:34:50;;;;;;;7.28;3.40;;;-11.90;51.90;;;-12.57;92.51;99102.38;5027728;28;130302;-76
2021/12/21 05:37:19;;;;;;;7.97;4.50;;;-11.90;52.60;;;-12.59;92.93;99106.97;5027773;28;119302;-76
2021/12/21 05:39:57;;;;;;;8.35;3.53;;;-11.90;52.40;;;-12.61;92.99;99108.94;5012796;28;113958;-76
2021/12/21 05:42:26;;;;;;;8.45;4.22;;;-11.80;52.30;;;-12.55;93.37;99113.50;5027165;28;130481;-77
2021/12/21 05:44:55;;;;;;;9.35;4.20;;;-11.80;52.10;;;-12.46;92.66;99107.25;5009137;28;130874;-77
2021/12/21 05:47:25;;;;;;;11.18;4.22;;;-11.80;52.80;;;-12.40;92.91;99103.94;4996126;28;118693;-75
2021/12/21 05:49:54;;;;;;;9.68;5.10;;;-11.70;52.70;;;-12.34;92.50;99108.47;5027756;28;115163;-75
2021/12/21 05:52:23;;;;;;;12.95;4.88;;;-11.60;51.10;;;-12.26;92.08;99117.25;5012306;28;129739;-75
2021/12/21 05:54:52;;;;;;;9.00;3.92;;;-11.50;50.40;;;-12.15;92.06;99114.25;5012190;28;128546;-74
2021/12/21 05:57:20;;;;;;;10.35;4.55;;;-11.40;50.40;;;-12.08;92.05;99115.16;5029394;28;118899;-74
2021/12/21 05:59:48;;;;;;;12.05;4.72;;;-11.40;50.50;;;-12.04;91.14;99111.22;5009246;28;115729;-78
2021/12/21 06:02:18;;;;;;;11.20;5.00;;;-11.40;48.10;;;-12.01;91.42;99110.88;5026988;28;130242;-76
2021/12/21 06:04:47;;;;;;;9.40;5.40;;;-11.40;48.40;;;-12.05;91.39;99108.78;5025914;28;130040;-75
2021/12/21 06:07:16;;;;;;;8.75;4.95;;;-11.40;48.10;;;-12.13;91.29;99110.44;5028387;28;119283;-75
2021/12/21 06:09:47;;;;;;;11.13;4.40;;;-11.40;48.20;;;-12.09;91.30;99113.53;5027318;28;115941;-75
2021/12/21 06:12:28;;;;;;;13.38;5.32;;;-11.40;47.70;;;-12.10;91.18;99122.38;5029113;28;130643;-75
2021/12/21 06:15:25;;;;;;;10.80;5.30;;;-11.40;47.60;;;-12.17;91.54;99121.44;5026472;28;130036;-75
2021/12/21 06:26:14;;;;;;;9.57;4.53;;;-11.40;46.00;;;-12.11;91.42;99121.53;4988851;28;130068;-74
2021/12/21 06:28:45;;;;;;;9.88;4.32;;;-11.40;45.20;;;-11.99;91.33;99119.34;4988717;28;118926;-74
2021/12/21 06:31:15;;;;;;;8.95;4.05;;;-11.30;45.40;;;-11.99;91.45;99123.78;5006462;28;115321;-74
2021/12/21 06:33:45;;;;;;;9.65;4.70;;;-11.20;44.50;;;-11.89;90.92;99118.28;5005266;28;129991;-73
2021/12/21 06:36:15;;;;;;;7.68;4.30;;;-11.20;43.80;;;-11.86;90.86;99102.22;5005028;28;129770;-74
2021/12/21 06:38:45;;;;;;;8.50;4.43;;;-11.10;43.00;;;-11.81;90.80;99121.66;5008081;28;119042;-74
2021/12/21 06:41:14;;;;;;;8.68;4.70;;;-11.00;44.20;;;-11.65;90.90;99115.47;5008716;28;115216;-74
2021/12/21 06:43:43;;;;;;;10.88;5.55;;;-10.90;45.20;;;-11.57;90.76;99133.72;5005921;28;130955;-74
2021/12/21 06:46:18;;;;;;;12.10;5.20;;;-10.90;45.40;;;-11.45;90.56;99128.03;5006359;28;129808;-72
2021/12/21 06:51:44;;;;;;;12.00;5.05;;;-10.80;44.90;;;-11.32;89.68;99125.63;4989631;28;119615;-72
2021/12/21 06:54:13;;;;;;;11.02;5.72;;;-10.70;44.60;;;-11.29;89.71;99116.59;4989640;28;130128;-72
2021/12/21 06:56:42;;;;;;;14.85;6.82;;;-10.70;44.20;;;-11.22;90.01;99115.72;5005407;28;129812;-72
2021/12/21 06:59:11;;;;;;;14.13;6.15;;;-10.60;44.70;;;-11.00;89.67;99122.84;4988949;28;122014;-73
2021/12/21 07:01:41;;;;;;;12.85;6.10;;;-10.40;47.00;;;-10.92;89.44;99131.44;4989999;28;121280;-74
2021/12/21 07:04:13;;;;;;;15.45;6.90;;;-10.50;47.20;;;-10.73;88.90;99134.50;5004697;28;129866;-75
2021/12/21 07:06:45;;;;;;;10.60;5.32;;;-10.40;48.60;;;-10.59;88.05;99130.25;4989566;28;129960;-75
2021/12/21 07:09:21;;;;;;;11.07;6.03;;;-10.30;45.90;;;-10.59;87.83;99136.28;4990119;28;118585;-74
2021/12/21 07:11:57;;;;;;;9.40;5.27;;;-10.30;46.40;;;-10.65;87.95;99131.78;4988683;28;118530;-73
2021/12/21 07:19:59;;;;;;;12.20;6.25;;;-10.30;42.00;;;-10.44;88.21;99143.31;5005301;28;119761;-73
2021/12/21 07:22:30;;;;;;;10.27;6.07;;;-10.20;44.50;;;-10.43;86.73;99137.88;5003598;28;119554;-74
2021/12/21 07:24:59;;;;;;;10.02;5.53;;;-10.30;41.50;;;-10.52;87.15;99137.16;5001200;28;130252;-74
2021/12/21 07:27:27;;;;;;;13.50;6.93;;;-10.30;40.80;;;-10.37;86.80;99145.03;5003782;28;129719;-74
2021/12/21 07:29:56;;;;;;;12.75;6.35;;;-10.20;41.80;;;-10.24;86.15;99152.19;5024791;28;119389;-74
2021/12/21 07:32:24;;;;;;;12.50;6.60;;;-10.10;40.60;;;-10.04;85.20;99155.03;5022798;28;119662;-74
2021/12/21 07:34:54;;;;;;;11.60;6.60;;;-10.00;42.20;;;-9.89;84.78;99154.16;5008610;28;129710;-74
2021/12/21 07:37:25;;;;;;;9.93;5.55;;;-10.00;40.30;;;-9.81;83.96;99165.38;5022598;28;129736;-74
2021/12/21 07:39:57;;;;;;;10.73;5.07;;;-10.00;37.90;;;-9.93;84.05;99156.34;5026445;27;119505;-75
2021/12/21 07:42:25;;;;;;;12.20;5.78;;;-9.90;37.20;;;-9.68;83.05;99154.16;5024533;28;119413;-74
2021/12/21 07:44:54;;;;;;;10.77;5.15;;;-9.80;37.60;;;-9.55;82.99;99148.25;5025826;28;129246;-74
2021/12/21 07:47:23;;;;;;;14.43;7.25;;;-9.70;37.80;;;-9.51;82.14;99151.28;5023382;28;130355;-74
2021/12/21 07:49:52;;;;;;;14.10;5.63;;;-9.60;36.30;;;-9.43;82.30;99145.88;5022954;28;122050;-74
2021/12/21 07:52:21;;;;;;;9.02;4.95;;;-9.70;35.40;;;-9.61;82.82;99152.41;5023872;28;122169;-74
2021/12/21 07:54:50;;;;;;;8.52;4.50;;;-9.70;33.70;;;-9.73;82.16;99145.25;5025383;28;128989;-74
2021/12/21 07:57:20;;;;;;;13.13;6.40;;;-9.80;32.30;;;-9.71;83.14;99156.38;5023614;28;130004;-74
2021/12/21 07:59:49;;;;;;;13.30;6.63;;;-9.80;36.20;;;-9.71;83.24;99153.75;5023981;28;119656;-74
2021/12/21 08:02:18;;;;;;;14.90;7.63;;;-9.80;36.20;;;-9.60;83.68;99147.97;5025453;28;118530;-74
2021/12/21 08:04:47;;;;;;;15.90;6.93;;;-9.70;39.20;;;-9.71;83.81;99161.63;5023355;28;130013;-74
2021/12/21 08:07:21;;;;;;;12.55;5.78;;;-9.70;39.30;;;-9.53;83.82;99164.63;5025764;28;129393;-74
2021/12/21 08:09:53;;;;;;;14.82;7.13;;;-9.80;38.90;;;-9.39;82.97;99157.66;5023763;28;119855;-74
2021/12/21 08:12:24;;;;;;;15.23;6.53;;;-9.70;41.00;;;-9.17;82.91;99171.56;5025425;28;119421;-74
2021/12/21 08:14:54;;;;;;;14.07;6.22;;;-9.60;41.00;;;-8.98;80.54;99166.63;5021977;28;129918;-74
2021/12/21 08:17:23;;;;;;;11.85;6.75;;;-9.60;35.90;;;-8.71;81.10;99165.78;5022779;28;129670;-74
2021/12/21 08:19:51;;;;;;;17.25;8.57;;;-9.30;37.50;;;-8.57;79.07;99176.38;5025305;28;119415;-74
2021/12/21 08:22:20;;;;;;;22.25;9.57;;;-9.30;35.10;;;-8.69;80.46;99168.22;5008547;28;118585;-75
2021/12/21 08:24:48;;;;;;;13.90;6.88;;;-9.40;34.50;;;-8.76;79.81;99156.84;5024350;28;129835;-74
2021/12/21 08:27:17;;;;;;;14.40;7.25;;;-9.40;36.10;;;-8.95;80.84;99153.09;5024510;27;131254;-74
2021/12/21 08:29:47;;;;;;;14.00;6.50;;;-9.50;35.20;;;-8.80;80.42;99156.44;5025349;28;119210;-75
2021/12/21 08:32:16;;;;;;;12.82;5.75;;;-9.40;37.00;;;-8.87;81.05;99139.78;5022669;28;119724;-75
2021/12/21 08:34:45;;;;;;;11.35;5.63;;;-9.40;34.80;;;-8.77;81.12;99150.78;5021785;28;129803;-76
2021/12/21 08:37:14;;;;;;;15.48;6.43;;;-9.40;36.70;;;-8.93;80.37;99145.81;5024800;28;129576;-75
2021/12/21 08:39:45;;;;;;;12.73;6.88;;;-9.40;32.80;;;-8.97;81.29;99145.41;5022168;28;122438;-73
2021/12/21 08:42:16;;;;;;;12.50;6.03;;;-9.50;34.20;;;-9.07;80.32;99140.50;5016823;28;121841;-75
2021/12/21 08:44:48;;;;;;;13.23;6.28;;;-9.60;34.00;;;-8.82;80.63;99140.00;4974788;28;128843;-76
2021/12/21 08:47:17;;;;;;;13.48;6.38;;;-9.40;35.70;;;-8.80;80.62;99145.09;5003034;28;129854;-73
2021/12/21 08:49:47;;;;;;;17.27;7.18;;;-9.30;36.10;;;-8.55;80.63;99148.88;5003239;28;119540;-73
2021/12/21 08:52:16;;;;;;;14.48;7.10;;;-9.20;36.70;;;-8.25;80.28;99131.94;5002609;28;119522;-71
2021/12/21 08:54:45;;;;;;;12.23;5.85;;;-9.00;40.70;;;-8.36;79.68;99136.75;5005105;28;129870;-72
2021/12/21 08:57:14;;;;;;;20.17;8.57;;;-9.00;34.40;;;-8.15;80.03;99135.00;5002940;28;130116;-72
2021/12/21 08:59:42;;;;;;;20.70;9.82;;;-8.80;38.80;;;-7.87;80.14;99144.59;5003485;28;119737;-72
2021/12/21 09:02:12;;;;;;;16.98;9.48;;;-8.70;42.70;;;-8.09;79.06;99147.38;5004020;28;119658;-73
2021/12/21 09:04:41;;;;;;;18.35;9.73;;;-8.80;38.90;;;-7.98;78.40;99138.91;5001030;28;129782;-72
2021/12/21 09:07:10;;;;;;;10.85;5.60;;;-8.90;36.80;;;-7.90;77.28;99139.72;5005124;28;129683;-74
2021/12/21 09:09:39;;;;;;;10.02;5.90;;;-8.80;32.30;;;-8.04;77.70;99137.06;5021745;28;119670;-72
2021/12/21 09:12:09;;;;;;;14.02;7.18;;;-8.90;32.60;;;-7.73;77.92;99135.69;4988268;28;119911;-72
2021/12/21 09:14:38;;;;;;;23.05;10.27;;;-8.70;36.30;;;-7.80;78.02;99132.25;5002321;28;129955;-72
2021/12/21 09:17:07;;;;;;;14.93;7.20;;;-8.60;33.90;;;-7.99;78.50;99137.28;5002291;28;129710;-72
2021/12/21 09:19:37;;;;;;;13.95;6.88;;;-8.70;32.60;;;-7.87;77.19;99134.03;5004343;28;120341;-72
2021/12/21 09:22:06;;;;;;;11.82;5.90;;;-8.70;30.60;;;-7.88;77.92;99129.78;5005518;28;120012;-73
2021/12/21 09:24:35;;;;;;;15.60;8.45;;;-8.70;30.60;;;-7.56;77.58;99145.84;4987333;28;128609;-72
2021/12/21 09:27:04;;;;;;;17.00;9.18;;;-8.50;32.90;;;-7.33;77.42;99137.53;5001871;28;129937;-72
2021/12/21 09:29:33;;;;;;;18.95;9.65;;;-8.40;36.70;;;-7.67;76.29;99137.50;5001333;28;122995;-72
2021/12/21 09:32:01;;;;;;;22.83;10.93;;;-8.40;31.80;;;-7.64;76.93;99134.47;4987474;28;120483;-73
2021/12/21 09:34:30;;;;;;;17.80;10.43;;;-8.60;32.70;;;-7.48;76.58;99129.81;5000899;28;131122;-74
2021/12/21 09:37:00;;;;;;;16.50;8.38;;;-8.60;32.10;;;-7.34;75.69;99133.25;5001967;28;129590;-74
2021/12/21 09:39:28;;;;;;;17.10;8.35;;;-8.40;33.60;;;-6.93;75.16;99124.28;5002997;28;119566;-72
2021/12/21 09:41:57;;;;;;;15.35;7.63;;;-8.20;35.70;;;-7.10;74.12;99129.19;5005616;28;119190;-73
2021/12/21 09:44:26;;;;;;;13.05;7.03;;;-8.30;31.30;;;-7.55;75.96;99126.38;5005585;28;129706;-72
2021/12/21 09:46:54;;;;;;;15.30;7.10;;;-8.30;28.60;;;-8.05;76.43;99127.53;5005180;28;128883;-74
2021/12/21 09:49:23;;;;;;;10.10;6.38;;;-8.50;26.10;;;-7.41;76.91;99134.06;5005446;28;119490;-72
2021/12/21 09:51:51;;;;;;;13.45;6.60;;;-8.30;29.80;;;-7.60;75.54;99129.63;5005223;28;119272;-73
2021/12/21 09:54:21;;;;;;;11.07;5.28;;;-8.40;26.80;;;-8.12;77.03;99131.97;5003855;28;129755;-74
2021/12/21 09:56:50;;;;;;;26.52;11.95;;;-8.50;25.10;;;-7.65;77.79;99132.03;5005235;28;129637;-74
2021/12/21 09:59:19;;;;;;;22.48;10.93;;;-8.40;28.60;;;-7.68;75.43;99140.34;5007580;28;119597;-73
2021/12/21 10:01:48;;;;;;;16.67;6.93;;;-8.30;28.00;;;-7.41;75.38;99138.53;5015728;28;119758;-73
2021/12/21 10:04:18;;;;;;;11.60;6.18;;;-8.10;27.20;;;-7.85;76.05;99147.81;5013780;28;130519;-73
2021/12/21 10:07:00;;;;;;;13.32;7.47;;;-8.20;23.50;;;-7.31;76.41;99149.47;5022827;28;129650;-74
2021/12/21 10:09:42;;;;;;;16.40;7.40;;;-8.00;28.20;;;-7.72;76.08;99149.69;5004161;28;119861;-74
2021/12/21 10:12:15;;;;;;;11.10;6.18;;;-8.00;24.80;;;-8.06;77.84;99146.97;5004542;28;119543;-73
2021/12/21 10:14:44;;;;;;;16.42;6.68;;;-8.30;24.50;;;-8.32;78.35;99159.06;5007090;28;128478;-74
2021/12/21 10:17:12;;;;;;;12.23;6.25;;;-8.40;24.30;;;-7.76;78.31;99151.88;5006710;28;129874;-74
2021/12/21 10:19:46;;;;;;;23.88;11.07;;;-8.30;29.50;;;-8.01;77.37;99152.47;5022822;28;121725;-74
2021/12/21 10:22:17;;;;;;;10.40;5.80;;;-8.30;28.50;;;-7.92;76.68;99152.28;5023771;28;121547;-74
2021/12/21 10:24:52;;;;;;;14.98;6.82;;;-8.40;24.70;;;-7.57;75.96;99154.75;5004776;28;130003;-73
2021/12/21 10:27:24;;;;;;;10.57;5.63;;;-8.10;26.70;;;-8.20;77.56;99153.22;5004331;28;129597;-74
2021/12/21 10:29:58;;;;;;;14.35;5.93;;;-8.20;23.00;;;-8.27;77.82;99150.56;5005743;28;119458;-74
2021/12/21 10:32:29;;;;;;;13.27;7.30;;;-8.40;24.90;;;-8.54;79.21;99139.97;4989088;28;118275;-74
2021/12/21 10:35:04;;;;;;;15.18;7.15;;;-8.40;26.10;;;-8.34;79.39;99139.19;5003973;28;130353;-74
2021/12/21 10:37:36;;;;;;;13.55;6.45;;;-8.50;28.00;;;-8.39;78.98;99131.88;4986533;28;129730;-74
2021/12/21 10:40:16;;;;;;;18.02;8.77;;;-8.50;27.00;;;-8.18;78.32;99135.38;5013310;28;119680;-75
2021/12/21 10:42:47;;;;;;;13.05;6.20;;;-8.40;27.60;;;-7.55;75.60;99142.19;5009433;28;120284;-74
2021/12/21 10:45:16;;;;;;;12.13;5.57;;;-8.00;22.80;;;-7.05;73.84;99143.38;5023481;28;129934;-74